createdAt,value
2022-08-12T00:00:43.281Z,3.90
2022-08-12T00:03:28.644Z,3.87
2022-08-12T00:06:17.960Z,3.60
2022-08-12T00:09:03.286Z,3.67
2022-08-12T00:11:51.316Z,3.50
2022-08-12T00:14:37.492Z,3.40
2022-08-12T00:17:24.218Z,3.43
2022-08-12T00:20:11.533Z,3.63
2022-08-12T00:23:02.768Z,3.47
2022-08-12T00:26:20.862Z,3.70
2022-08-12T00:29:12.608Z,3.60
2022-08-12T00:32:00.674Z,3.10
2022-08-12T00:34:51.621Z,3.23
2022-08-12T00:37:40.832Z,3.60
2022-08-12T00:40:31.663Z,3.30
2022-08-12T00:43:02.766Z,3.53
2022-08-12T00:45:52.338Z,3.20
2022-08-12T00:48:22.440Z,3.80
2022-08-12T00:50:55.365Z,3.70
2022-08-12T00:53:23.437Z,3.60
2022-08-12T00:55:58.755Z,3.50
2022-08-12T00:58:28.903Z,3.43
2022-08-12T01:01:10.946Z,3.50
2022-08-12T01:04:06.107Z,3.63
2022-08-12T01:06:57.229Z,3.60
2022-08-12T01:09:45.449Z,3.60
2022-08-12T01:12:16.540Z,3.40
2022-08-12T01:14:46.175Z,3.97
2022-08-12T01:17:15.494Z,3.60
2022-08-12T01:19:48.769Z,3.40
2022-08-12T01:22:47.402Z,3.90
2022-08-12T01:25:25.298Z,3.30
2022-08-12T01:27:57.084Z,3.67
2022-08-12T01:30:28.661Z,3.20
2022-08-12T01:33:02.136Z,3.67
2022-08-12T01:35:34.985Z,3.63
2022-08-12T01:38:08.286Z,3.60
2022-08-12T01:40:40.464Z,3.40
2022-08-12T01:43:16.784Z,3.40
2022-08-12T01:46:04.476Z,3.47
2022-08-12T01:49:13.758Z,3.30
2022-08-12T01:52:20.721Z,3.50
2022-08-12T01:54:49.307Z,3.70
2022-08-12T01:57:57.104Z,3.50
2022-08-12T02:00:16.664Z,3.63
2022-08-12T02:02:46.350Z,3.50
2022-08-12T02:05:41.848Z,3.20
2022-08-12T02:09:00.856Z,3.40
2022-08-12T02:11:33.104Z,3.07
2022-08-12T02:14:45.070Z,3.43
2022-08-12T02:17:55.637Z,3.63
2022-08-12T02:20:59.290Z,3.27
2022-08-12T02:23:27.899Z,3.30
2022-08-12T02:26:09.389Z,3.50
2022-08-12T02:28:38.591Z,3.80
2022-08-12T02:31:11.776Z,3.63
2022-08-12T02:33:41.423Z,3.20
2022-08-12T02:36:14.237Z,3.40
2022-08-12T02:38:46.028Z,3.37
2022-08-12T02:41:17.677Z,3.57
2022-08-12T02:43:59.420Z,3.70
2022-08-12T02:46:34.808Z,3.37
2022-08-12T02:49:10.037Z,3.60
2022-08-12T02:51:44.078Z,4.00
2022-08-12T02:54:12.934Z,3.73
2022-08-12T02:56:50.286Z,3.53
2022-08-12T02:59:23.282Z,4.13
2022-08-12T03:01:53.360Z,3.00
2022-08-12T03:04:43.107Z,3.50
2022-08-12T03:07:52.378Z,3.47
2022-08-12T03:10:37.392Z,3.30
2022-08-12T03:13:08.301Z,3.10
2022-08-12T03:15:35.889Z,3.57
2022-08-12T03:18:28.881Z,3.37
2022-08-12T03:20:59.179Z,3.50
2022-08-12T03:23:31.229Z,3.30
2022-08-12T03:26:05.555Z,3.30
2022-08-12T03:28:51.926Z,3.70
2022-08-12T03:31:33.811Z,3.73
2022-08-12T03:34:14.425Z,3.20
2022-08-12T03:36:42.406Z,3.40
2022-08-12T03:39:17.785Z,3.40
2022-08-12T03:42:06.129Z,3.53
2022-08-12T03:45:01.155Z,3.10
2022-08-12T03:48:19.139Z,3.43
2022-08-12T03:51:06.817Z,3.57
2022-08-12T03:53:53.625Z,3.40
2022-08-12T03:56:39.592Z,3.10
2022-08-12T03:59:28.961Z,3.30
2022-08-12T04:01:58.873Z,3.40
2022-08-12T04:04:36.406Z,3.60
2022-08-12T04:07:12.030Z,3.70
2022-08-12T04:09:43.535Z,3.50
2022-08-12T04:12:32.657Z,3.50
2022-08-12T04:15:01.332Z,3.37
2022-08-12T04:17:31.098Z,3.40
2022-08-12T04:20:00.585Z,3.53
2022-08-12T04:22:30.481Z,3.33
2022-08-12T04:25:02.074Z,3.73
2022-08-12T04:27:33.245Z,3.47
2022-08-12T04:30:30.649Z,4.13
2022-08-12T04:32:54.147Z,3.53
2022-08-12T04:35:21.484Z,3.87
2022-08-12T04:37:58.062Z,3.47
2022-08-12T04:40:32.886Z,3.70
2022-08-12T04:43:06.737Z,3.40
2022-08-12T04:45:55.656Z,3.67
2022-08-12T04:48:27.057Z,4.53
2022-08-12T04:50:55.153Z,3.67
2022-08-12T04:53:22.294Z,3.50
2022-08-12T04:55:52.255Z,3.20
2022-08-12T04:58:29.348Z,3.77
2022-08-12T05:00:59.186Z,3.40
2022-08-12T05:03:26.862Z,3.50
2022-08-12T05:05:56.887Z,3.57
2022-08-12T05:08:28.165Z,3.90
2022-08-12T05:10:55.196Z,3.43
2022-08-12T05:13:45.120Z,3.73
2022-08-12T05:16:11.871Z,3.80
2022-08-12T05:18:45.871Z,3.97
2022-08-12T05:21:22.327Z,3.37
2022-08-12T05:23:51.391Z,4.10
2022-08-12T05:26:20.466Z,3.60
2022-08-12T05:28:49.991Z,3.60
2022-08-12T05:31:41.752Z,3.77
2022-08-12T05:34:15.731Z,4.07
2022-08-12T05:36:49.761Z,3.60
2022-08-12T05:39:16.548Z,3.10
2022-08-12T05:41:44.360Z,3.60
2022-08-12T05:44:15.616Z,3.80
2022-08-12T05:46:45.461Z,3.67
2022-08-12T05:49:12.246Z,3.77
2022-08-12T05:51:43.615Z,3.37
2022-08-12T05:54:11.958Z,3.80
2022-08-12T05:56:40.663Z,3.50
2022-08-12T05:59:10.975Z,3.53
2022-08-12T06:02:12.128Z,3.50
2022-08-12T06:04:28.248Z,3.80
2022-08-12T06:06:57.296Z,3.77
2022-08-12T06:09:25.555Z,3.70
2022-08-12T06:12:05.738Z,3.50
2022-08-12T06:14:37.056Z,3.70
2022-08-12T06:17:09.234Z,3.57
2022-08-12T06:20:26.335Z,3.60
2022-08-12T06:22:25.895Z,3.57
2022-08-12T06:24:55.279Z,4.43
2022-08-12T06:27:24.662Z,4.10
2022-08-12T06:30:07.544Z,3.70
2022-08-12T06:32:47.538Z,4.80
2022-08-12T06:35:48.867Z,3.80
2022-08-12T06:38:26.068Z,3.83
2022-08-12T06:41:18.353Z,4.47
2022-08-12T06:44:06.544Z,4.13
2022-08-12T06:46:39.310Z,5.10
2022-08-12T06:49:13.260Z,4.50
2022-08-12T06:51:42.610Z,4.10
2022-08-12T06:54:31.127Z,3.80
2022-08-12T06:58:06.460Z,3.67
2022-08-12T06:59:53.074Z,3.73
2022-08-12T07:02:22.672Z,3.80
2022-08-12T07:04:52.602Z,3.63
2022-08-12T07:07:27.208Z,3.83
2022-08-12T07:10:05.260Z,3.50
2022-08-12T07:12:35.255Z,3.67
2022-08-12T07:15:02.544Z,3.43
2022-08-12T07:17:36.168Z,3.50
2022-08-12T07:20:29.773Z,3.83
2022-08-12T07:23:07.247Z,3.43
2022-08-12T07:25:41.458Z,3.50
2022-08-12T07:28:25.046Z,3.53
2022-08-12T07:30:56.799Z,3.43
2022-08-12T07:33:28.104Z,3.70
2022-08-12T07:36:02.189Z,3.30
2022-08-12T07:38:46.698Z,3.43
2022-08-12T07:41:25.425Z,3.43
2022-08-12T07:44:04.946Z,3.30
2022-08-12T07:46:40.117Z,3.10
2022-08-12T07:49:12.148Z,3.73
2022-08-12T07:51:42.182Z,3.60
2022-08-12T07:54:16.980Z,3.67
2022-08-12T07:56:45.984Z,3.37
2022-08-12T07:59:15.500Z,3.20
2022-08-12T08:01:44.618Z,3.43
2022-08-12T08:04:32.411Z,3.30
2022-08-12T08:07:01.848Z,3.47
2022-08-12T08:09:28.695Z,3.70
2022-08-12T08:12:19.437Z,3.47
2022-08-12T08:14:51.339Z,4.07
2022-08-12T08:17:23.286Z,3.60
2022-08-12T08:20:02.671Z,3.37
2022-08-12T08:22:41.819Z,3.10
2022-08-12T08:25:34.643Z,2.80
2022-08-12T08:28:07.459Z,2.73
2022-08-12T08:30:38.183Z,2.90
2022-08-12T08:33:23.221Z,3.27
2022-08-12T08:35:55.960Z,2.90
2022-08-12T08:38:33.049Z,3.20
2022-08-12T08:42:16.362Z,3.10
2022-08-12T08:44:11.077Z,2.93
2022-08-12T08:46:44.412Z,3.13
2022-08-12T08:49:19.285Z,2.87
2022-08-12T08:51:48.188Z,2.90
2022-08-12T08:54:20.554Z,3.00
2022-08-12T08:56:52.291Z,3.13
2022-08-12T08:59:20.068Z,3.70
2022-08-12T09:01:47.749Z,3.50
2022-08-12T09:05:11.235Z,3.03
2022-08-12T09:07:17.939Z,3.17
2022-08-12T09:13:01.154Z,3.70
2022-08-12T09:15:36.229Z,3.50
2022-08-12T09:18:11.709Z,2.90
2022-08-12T09:20:42.956Z,3.10
2022-08-12T09:23:59.656Z,3.07
2022-08-12T09:26:05.081Z,2.97
2022-08-12T09:32:04.253Z,3.50
2022-08-12T09:34:29.178Z,3.00
2022-08-12T09:37:00.391Z,3.40
2022-08-12T09:40:01.603Z,3.20
2022-08-12T09:42:42.627Z,3.00
2022-08-12T09:45:23.614Z,3.40
2022-08-12T09:47:59.975Z,3.60
2022-08-12T09:50:27.678Z,3.13
2022-08-12T09:53:17.223Z,3.47
2022-08-12T09:56:56.935Z,3.40
2022-08-12T09:58:59.752Z,3.37
2022-08-12T10:01:35.739Z,3.40
2022-08-12T10:04:19.657Z,3.10
2022-08-12T10:06:55.013Z,3.13
2022-08-12T10:09:56.855Z,3.10
2022-08-12T10:12:34.769Z,3.17
2022-08-12T10:15:06.208Z,3.17
2022-08-12T10:17:35.425Z,5.93
2022-08-12T10:20:24.347Z,3.90
2022-08-12T10:23:01.755Z,3.50
2022-08-12T10:26:35.247Z,3.50
2022-08-12T10:29:02.684Z,3.00
2022-08-12T10:31:47.058Z,3.23
2022-08-12T10:34:26.088Z,3.30
2022-08-12T10:37:10.675Z,3.50
2022-08-12T10:40:06.832Z,3.50
2022-08-12T10:43:00.967Z,4.07
2022-08-12T10:45:31.137Z,3.40
2022-08-12T10:48:21.693Z,3.30
2022-08-12T10:51:02.263Z,3.47
2022-08-12T10:53:45.758Z,3.50
2022-08-12T10:56:18.447Z,3.50
2022-08-12T10:58:55.721Z,3.30
2022-08-12T11:01:50.467Z,3.30
2022-08-12T11:04:26.006Z,3.20
2022-08-12T11:07:05.151Z,3.33
2022-08-12T11:09:55.773Z,3.53
2022-08-12T11:12:55.162Z,3.63
2022-08-12T11:15:24.612Z,3.33
2022-08-12T11:18:03.127Z,3.30
2022-08-12T11:20:32.607Z,3.30
2022-08-12T11:23:04.061Z,3.20
2022-08-12T11:25:57.855Z,3.43
2022-08-12T11:28:34.059Z,3.20
2022-08-12T11:31:02.500Z,3.27
2022-08-12T11:34:06.138Z,3.00
2022-08-12T11:36:17.367Z,3.40
2022-08-12T11:38:50.446Z,3.17
2022-08-12T11:41:31.496Z,3.20
2022-08-12T11:44:12.644Z,2.90
2022-08-12T11:46:54.392Z,3.10
2022-08-12T11:49:31.189Z,3.23
2022-08-12T11:51:59.888Z,2.90
2022-08-12T11:54:30.978Z,3.22
2022-08-12T11:57:02.017Z,2.72
2022-08-12T12:02:20.654Z,3.15
2022-08-12T12:04:53.022Z,2.90
2022-08-12T12:07:33.714Z,2.95
2022-08-12T12:10:17.895Z,3.20
2022-08-12T12:12:50.128Z,3.03
2022-08-12T12:15:24.733Z,2.92
2022-08-12T12:17:55.886Z,2.90
2022-08-12T12:20:25.917Z,3.00
2022-08-12T12:22:54.488Z,2.97
2022-08-12T12:25:21.425Z,3.20
2022-08-12T12:28:37.327Z,3.10
2022-08-12T12:31:04.164Z,3.10
2022-08-12T12:33:56.764Z,3.05
2022-08-12T12:36:30.270Z,3.20
2022-08-12T12:39:00.932Z,3.30
2022-08-12T12:42:41.770Z,3.50
2022-08-12T12:44:26.058Z,3.45
2022-08-12T12:47:28.887Z,3.28
2022-08-12T12:49:59.147Z,3.15
2022-08-12T12:52:28.933Z,3.97
2022-08-12T12:54:58.461Z,3.30
2022-08-12T12:57:36.087Z,3.60
2022-08-12T13:00:15.199Z,3.30
2022-08-12T13:02:56.773Z,3.40
2022-08-12T13:05:42.691Z,3.10
2022-08-12T13:08:35.702Z,3.47
2022-08-12T13:11:07.796Z,3.70
2022-08-12T13:14:06.973Z,3.60
2022-08-12T13:16:29.186Z,3.20
2022-08-12T13:18:57.078Z,3.00
2022-08-12T13:21:33.337Z,3.40
2022-08-12T13:24:09.848Z,3.33
2022-08-12T13:26:39.944Z,3.63
2022-08-12T13:29:11.088Z,3.53
2022-08-12T13:31:46.326Z,3.38
2022-08-12T13:34:35.279Z,3.20
2022-08-12T13:37:09.620Z,3.28
2022-08-12T13:39:39.079Z,3.20
2022-08-12T13:42:14.255Z,3.10
2022-08-12T13:44:43.961Z,3.20
2022-08-12T13:47:19.570Z,3.30
2022-08-12T13:49:54.893Z,3.15
2022-08-12T13:52:27.516Z,3.40
2022-08-12T13:54:56.629Z,3.17
2022-08-12T13:57:44.534Z,3.67
2022-08-12T14:00:19.111Z,3.45
2022-08-12T14:02:46.069Z,3.15
2022-08-12T14:05:31.332Z,3.65
2022-08-12T14:08:10.823Z,3.00
2022-08-12T14:10:50.871Z,3.00
2022-08-12T14:14:04.837Z,4.18
2022-08-12T14:16:47.167Z,3.42
2022-08-12T14:19:10.407Z,3.10
2022-08-12T14:21:59.240Z,3.30
2022-08-12T14:24:41.101Z,3.55
2022-08-12T14:27:14.073Z,3.40
2022-08-12T14:30:15.634Z,3.45
2022-08-12T14:32:44.154Z,3.30
2022-08-12T14:35:14.719Z,4.10
2022-08-12T14:37:55.006Z,3.20
2022-08-12T14:40:29.687Z,3.42
2022-08-12T14:43:06.370Z,2.97
2022-08-12T14:45:45.524Z,3.42
2022-08-12T14:48:23.349Z,3.28
2022-08-12T14:52:10.653Z,3.97
2022-08-12T14:55:36.157Z,3.30
2022-08-12T14:59:56.290Z,3.63
2022-08-12T15:02:28.455Z,3.40
2022-08-12T15:05:03.722Z,3.60
2022-08-12T15:07:48.828Z,3.33
2022-08-12T15:10:25.137Z,3.45
2022-08-12T15:13:07.674Z,3.30
2022-08-12T15:15:44.272Z,3.25
2022-08-12T15:18:23.268Z,3.83
2022-08-12T15:20:56.237Z,3.60
2022-08-12T15:23:55.038Z,3.67
2022-08-12T15:26:20.797Z,3.67
2022-08-12T15:28:54.968Z,3.40
2022-08-12T15:31:28.306Z,3.40
2022-08-12T15:34:15.730Z,3.30
2022-08-12T15:36:54.760Z,3.70
2022-08-12T15:39:22.332Z,3.47
2022-08-12T15:41:55.427Z,3.33
2022-08-12T15:44:41.860Z,3.60
2022-08-12T15:47:16.361Z,3.85
2022-08-12T15:50:00.376Z,3.97
2022-08-12T15:52:32.616Z,2.97
2022-08-12T15:55:11.697Z,3.30
2022-08-12T15:57:50.454Z,3.58
2022-08-12T16:00:33.429Z,3.22
2022-08-12T16:03:13.444Z,3.00
2022-08-12T16:06:13.211Z,3.17
2022-08-12T16:08:36.502Z,3.20
2022-08-12T16:11:15.297Z,3.33
2022-08-12T16:13:46.282Z,3.20
2022-08-12T16:16:23.521Z,3.42
2022-08-12T16:19:00.807Z,3.20
2022-08-12T16:21:51.355Z,2.80
2022-08-12T16:24:18.922Z,3.03
2022-08-12T16:26:51.299Z,2.80
2022-08-12T16:29:29.350Z,2.95
2022-08-12T16:32:16.375Z,3.10
2022-08-12T16:34:55.070Z,2.47
2022-08-12T16:37:32.549Z,3.38
2022-08-12T16:40:08.168Z,2.60
2022-08-12T16:42:54.216Z,3.05
2022-08-12T16:46:04.083Z,2.90
2022-08-12T16:48:35.001Z,2.60
2022-08-12T16:51:10.096Z,2.70
2022-08-12T16:53:45.585Z,2.80
2022-08-12T16:56:18.242Z,2.63
2022-08-12T16:58:48.072Z,2.63
2022-08-12T17:01:19.731Z,2.60
2022-08-12T17:04:09.125Z,2.70
2022-08-12T17:06:43.243Z,2.83
2022-08-12T17:09:17.806Z,2.67
2022-08-12T17:11:49.118Z,2.85
2022-08-12T17:14:20.251Z,2.63
2022-08-12T17:16:55.190Z,2.60
2022-08-12T17:20:30.602Z,2.50
2022-08-12T17:22:21.680Z,2.55
2022-08-12T17:24:55.334Z,3.00
2022-08-12T17:27:30.824Z,2.80
2022-08-12T17:30:04.518Z,2.78
2022-08-12T17:32:39.841Z,2.30
2022-08-12T17:35:30.083Z,2.53
2022-08-12T17:38:13.637Z,2.80
2022-08-12T17:40:44.421Z,2.70
2022-08-12T17:43:55.813Z,3.10
2022-08-12T17:46:12.745Z,2.90
2022-08-12T17:48:55.293Z,2.60
2022-08-12T17:51:31.461Z,2.20
2022-08-12T17:54:11.499Z,2.10
2022-08-12T17:56:42.916Z,2.43
2022-08-12T17:59:12.411Z,2.47
2022-08-12T18:01:46.037Z,2.57
2022-08-12T18:04:23.028Z,2.37
2022-08-12T18:06:52.002Z,2.20
2022-08-12T18:09:24.510Z,2.40
2022-08-12T18:12:24.644Z,2.40
2022-08-12T18:15:11.019Z,2.33
2022-08-12T18:18:02.256Z,2.40
2022-08-12T18:20:35.256Z,2.20
2022-08-12T18:23:10.159Z,2.20
2022-08-12T18:26:12.978Z,2.30
2022-08-12T18:28:51.744Z,2.40
2022-08-12T18:31:43.849Z,2.30
2022-08-12T18:34:14.567Z,2.63
2022-08-12T18:36:50.208Z,2.30
2022-08-12T18:39:23.395Z,2.57
2022-08-12T18:41:54.426Z,2.77
2022-08-12T18:44:27.844Z,2.77
2022-08-12T18:47:02.184Z,2.77
2022-08-12T18:49:39.426Z,3.00
2022-08-12T18:52:11.966Z,2.80
2022-08-12T18:54:49.191Z,2.73
2022-08-12T18:58:05.867Z,2.60
2022-08-12T19:00:21.614Z,2.60
2022-08-12T19:02:52.555Z,2.40
2022-08-12T19:05:53.336Z,2.67
2022-08-12T19:08:19.356Z,2.60
2022-08-12T19:10:54.174Z,2.60
2022-08-12T19:13:42.847Z,2.37
2022-08-12T19:16:10.835Z,2.47
2022-08-12T19:18:40.817Z,2.40
2022-08-12T19:21:16.909Z,2.20
2022-08-12T19:24:07.818Z,2.50
2022-08-12T19:26:36.320Z,2.50
2022-08-12T19:29:08.421Z,2.60
2022-08-12T19:31:57.922Z,2.67
2022-08-12T19:34:56.323Z,2.70
2022-08-12T19:38:03.230Z,2.60
2022-08-12T19:40:31.774Z,3.27
2022-08-12T19:43:20.672Z,3.07
2022-08-12T19:45:56.737Z,2.87
2022-08-12T19:48:32.581Z,2.87
2022-08-12T19:51:08.806Z,2.80
2022-08-12T19:53:57.286Z,3.10
2022-08-12T19:56:29.587Z,3.00
2022-08-12T19:59:19.117Z,3.10
2022-08-12T20:02:03.073Z,3.10
2022-08-12T20:04:41.289Z,3.10
2022-08-12T20:07:23.811Z,2.80
2022-08-12T20:09:54.131Z,2.90
2022-08-12T20:12:31.570Z,3.00
2022-08-12T20:15:15.229Z,3.00
2022-08-12T20:17:51.142Z,3.03
2022-08-12T20:20:28.275Z,3.00
2022-08-12T20:22:55.664Z,2.90
2022-08-12T20:25:51.848Z,3.17
2022-08-12T20:28:12.007Z,2.90
2022-08-12T20:30:59.251Z,3.10
2022-08-12T20:33:32.825Z,3.30
2022-08-12T20:36:41.377Z,2.70
2022-08-12T20:39:23.811Z,3.70
2022-08-12T20:42:11.268Z,3.13
2022-08-12T20:44:43.657Z,2.80
2022-08-12T20:47:19.609Z,2.60
2022-08-12T20:49:55.305Z,2.80
2022-08-12T20:52:29.916Z,3.00
2022-08-12T20:55:02.469Z,3.13
2022-08-12T20:57:38.058Z,2.90
2022-08-12T21:00:16.042Z,3.20
2022-08-12T21:02:49.955Z,2.70
2022-08-12T21:06:09.589Z,2.97
2022-08-12T21:08:27.161Z,2.40
2022-08-12T21:10:58.894Z,2.63
2022-08-12T21:13:39.181Z,2.60
2022-08-12T21:16:09.760Z,2.63
2022-08-12T21:18:50.822Z,2.60
2022-08-12T21:21:24.305Z,2.43
2022-08-12T21:24:08.714Z,2.67
2022-08-12T21:26:39.964Z,2.33
2022-08-12T21:29:16.126Z,2.40
2022-08-12T21:32:39.121Z,2.50
2022-08-12T21:34:34.549Z,2.47
2022-08-12T21:37:13.003Z,2.50
2022-08-12T21:39:56.474Z,2.43
2022-08-12T21:42:26.294Z,2.50
2022-08-12T21:45:47.381Z,2.73
2022-08-12T21:47:53.400Z,2.80
2022-08-12T21:50:20.295Z,2.60
2022-08-12T21:52:50.236Z,2.60
2022-08-12T21:55:19.627Z,2.70
2022-08-12T21:58:02.472Z,2.50
2022-08-12T22:00:35.189Z,2.50
2022-08-12T22:04:04.447Z,2.30
2022-08-12T22:06:20.222Z,2.60
2022-08-12T22:09:04.100Z,2.70
2022-08-12T22:11:41.457Z,3.03
2022-08-12T22:14:22.034Z,2.70
2022-08-12T22:16:55.907Z,2.60
2022-08-12T22:19:28.045Z,2.43
2022-08-12T22:21:58.297Z,2.60
2022-08-12T22:24:30.890Z,2.80
2022-08-12T22:27:18.057Z,2.53
2022-08-12T22:30:16.528Z,2.50
2022-08-12T22:32:50.413Z,2.70
2022-08-12T22:35:55.534Z,2.83
2022-08-12T22:38:26.380Z,3.10
2022-08-12T22:40:58.554Z,2.70
2022-08-12T22:44:00.193Z,2.97
2022-08-12T22:46:53.162Z,2.70
2022-08-12T22:49:37.271Z,2.63
2022-08-12T22:52:18.543Z,3.10
2022-08-12T22:55:03.213Z,2.70
2022-08-12T22:57:53.461Z,2.63
2022-08-12T23:00:24.313Z,2.77
2022-08-12T23:03:02.678Z,2.70
2022-08-12T23:05:57.370Z,2.50
2022-08-12T23:08:23.116Z,2.43
2022-08-12T23:10:53.241Z,2.43
2022-08-12T23:13:43.048Z,2.40
2022-08-12T23:16:27.889Z,2.60
2022-08-12T23:19:10.381Z,2.40
2022-08-12T23:22:06.512Z,2.50
2022-08-12T23:24:56.517Z,2.53
2022-08-12T23:27:51.647Z,2.60
2022-08-12T23:30:35.160Z,2.60
2022-08-12T23:33:19.835Z,2.60
2022-08-12T23:36:03.412Z,2.63
2022-08-12T23:38:33.059Z,2.60
2022-08-12T23:41:02.616Z,2.60
2022-08-12T23:43:42.759Z,2.87
2022-08-12T23:46:25.816Z,2.80
2022-08-12T23:48:56.664Z,2.50
2022-08-12T23:51:26.660Z,2.90
2022-08-12T23:54:07.027Z,2.83
2022-08-12T23:56:43.927Z,2.77
2022-08-12T23:59:16.531Z,2.40
